Time;durP1;ratioP1;P1;durP2;ratioP2;P2;SDS_P1;SDS_P2;PMS_P1;PMS_P2;Temp;Humidity;BMP_temperature;BMP_pressure;BME280_temperature;BME280_humidity;BME280_pressure;Samples;Min_cycle;Max_cycle;Signal;HPM_P1;HPM_P2
2022/05/25 00:01:25;;;;;;;12.80;11.60;;;;;;;14.91;81.17;96387.97;5114398;28;20516;-61
2022/05/25 00:03:51;;;;;;;13.43;12.15;;;;;;;14.92;80.85;96386.19;5114620;28;20023;-61
2022/05/25 00:06:16;;;;;;;13.65;12.18;;;;;;;14.91;80.97;96381.88;5114311;28;20027;-63
2022/05/25 00:08:42;;;;;;;12.73;11.40;;;;;;;14.91;80.99;96380.06;5114183;28;20373;-64
2022/05/25 00:11:10;;;;;;;15.70;12.20;;;;;;;14.96;81.07;96386.88;5114008;28;20024;-63
2022/05/25 00:13:36;;;;;;;13.82;12.55;;;;;;;14.98;81.36;96392.88;5114226;28;20026;-64
2022/05/25 00:16:02;;;;;;;13.32;12.13;;;;;;;14.96;81.19;96392.97;5114057;28;20112;-61
2022/05/25 00:18:28;;;;;;;13.23;11.93;;;;;;;14.95;81.49;96388.66;5114095;27;20023;-63
2022/05/25 00:20:53;;;;;;;13.15;11.52;;;;;;;14.97;81.36;96388.56;5113971;28;20450;-64
2022/05/25 00:23:19;;;;;;;13.23;11.90;;;;;;;14.99;81.24;96394.59;5113922;28;20031;-64
2022/05/25 00:25:45;;;;;;;12.13;11.02;;;;;;;15.00;81.42;96393.66;5113955;28;20080;-61
2022/05/25 00:28:13;;;;;;;11.45;10.40;;;;;;;15.02;80.95;96394.41;5113904;28;20355;-64
2022/05/25 00:30:41;;;;;;;13.45;12.13;;;;;;;14.99;81.06;96389.31;5113788;28;20020;-62
2022/05/25 00:33:07;;;;;;;13.75;11.35;;;;;;;14.98;80.96;96385.84;5113713;28;20055;-62
2022/05/25 00:35:35;;;;;;;13.85;12.48;;;;;;;14.96;80.96;96382.44;5113881;28;20029;-63
2022/05/25 00:38:02;;;;;;;14.27;12.98;;;;;;;14.94;81.34;96391.38;5113715;28;20426;-62
2022/05/25 00:40:43;;;;;;;21.23;13.32;;;;;;;14.93;81.80;96390.50;5113669;28;20024;-61
2022/05/25 00:43:10;;;;;;;13.80;12.48;;;;;;;14.98;81.83;96400.78;5113723;28;20024;-64
2022/05/25 00:45:44;;;;;;;13.70;12.32;;;;;;;14.98;81.46;96411.31;5113861;28;20118;-61
2022/05/25 00:48:16;;;;;;;14.45;12.23;;;;;;;14.99;81.55;96399.88;5113645;28;20031;-63
2022/05/25 00:53:25;;;;;;;20.48;12.55;;;;;;;15.01;81.51;96409.38;5113942;28;20432;-61
2022/05/25 00:55:54;;;;;;;13.93;12.52;;;;;;;15.01;81.56;96401.47;5113549;28;20015;-62
2022/05/25 00:58:19;;;;;;;14.38;12.90;;;;;;;15.04;81.68;96403.06;5113553;28;20084;-64
2022/05/25 01:00:45;;;;;;;14.55;13.25;;;;;;;15.03;81.74;96404.00;5113552;28;20431;-64
2022/05/25 01:03:13;;;;;;;18.20;16.48;;;;;;;15.06;82.17;96405.59;5113361;28;20016;-61
2022/05/25 01:06:01;;;;;;;21.15;17.58;;;;;;;15.05;82.45;96409.19;5113342;28;20042;-61
2022/05/25 01:08:43;;;;;;;19.50;17.50;;;;;;;15.08;82.40;96409.00;5113456;28;20072;-62
2022/05/25 01:11:27;;;;;;;23.98;17.52;;;;;;;15.09;82.31;96405.44;5113371;28;20024;-60
2022/05/25 01:14:05;;;;;;;20.25;18.05;;;;;;;15.12;82.39;96402.63;5113382;28;20465;-63
2022/05/25 01:16:30;;;;;;;19.05;16.90;;;;;;;15.14;82.44;96412.13;5113351;28;20034;-64
2022/05/25 01:19:21;;;;;;;26.08;20.05;;;;;;;15.19;82.34;96421.53;5113477;28;20118;-60
2022/05/25 01:21:59;;;;;;;;;;;;;;;15.23;82.13;96413.38;5113754;28;20023;-65
2022/05/25 01:24:49;;;;;;;14.60;13.10;;;;;;;15.16;82.22;96423.44;5116238;28;19912;-61
2022/05/25 01:27:28;;;;;;;15.17;13.77;;;;;;;15.14;82.15;96429.72;5117395;28;20031;-61
2022/05/25 01:30:07;;;;;;;18.23;13.52;;;;;;;15.16;82.08;96428.69;5117419;28;20122;-62
2022/05/25 01:32:51;;;;;;;23.13;16.52;;;;;;;15.11;82.13;96430.75;5117175;28;20121;-62
2022/05/25 01:35:25;;;;;;;21.60;16.05;;;;;;;15.12;82.06;96435.09;5117218;28;20031;-63
2022/05/25 01:38:23;;;;;;;17.98;16.08;;;;;;;15.14;81.85;96438.47;5117253;28;20381;-61
2022/05/25 01:41:36;;;;;;;17.70;15.93;;;;;;;15.11;81.94;96433.38;5117296;28;20030;-63
2022/05/25 01:44:14;;;;;;;22.40;16.88;;;;;;;15.09;81.94;96437.03;5094580;28;20068;-63
2022/05/25 01:46:54;;;;;;;25.80;17.80;;;;;;;15.08;82.12;96441.44;5116040;28;20044;-65
2022/05/25 01:49:25;;;;;;;23.23;17.55;;;;;;;15.08;82.29;96440.63;5116954;28;20058;-63
2022/05/25 01:51:57;;;;;;;24.83;18.52;;;;;;;15.10;82.38;96449.25;5116848;28;20032;-63
2022/05/25 01:54:26;;;;;;;23.98;17.80;;;;;;;15.13;81.95;96454.34;5116988;28;20023;-63
2022/05/25 01:56:56;;;;;;;22.48;18.77;;;;;;;15.08;82.23;96444.09;5116864;28;20110;-61
2022/05/25 01:59:22;;;;;;;25.80;19.10;;;;;;;15.12;82.36;96450.03;5116871;28;20018;-62
2022/05/25 02:04:39;;;;;;;20.10;17.98;;;;;;;15.15;82.44;96449.88;5116778;28;20135;-64
2022/05/25 02:07:17;;;;;;;20.77;16.85;;;;;;;15.15;82.46;96457.75;5116642;28;20385;-62
2022/05/25 02:09:55;;;;;;;24.58;17.35;;;;;;;15.13;82.48;96464.91;5116624;28;20102;-61
2022/05/25 02:12:45;;;;;;;20.45;16.25;;;;;;;15.14;82.61;96463.97;5116616;28;20035;-64
2022/05/25 02:15:18;;;;;;;19.58;17.25;;;;;;;15.15;82.43;96469.13;5116426;28;20385;-63
2022/05/25 02:18:06;;;;;;;24.38;17.38;;;;;;;15.18;82.25;96467.25;5116515;28;20036;-64
2022/05/25 02:20:47;;;;;;;25.17;19.98;;;;;;;15.21;82.25;96469.72;5116553;28;20028;-65
2022/05/25 02:23:47;;;;;;;26.52;16.80;;;;;;;15.23;82.29;96463.44;5116336;28;20028;-63
2022/05/25 02:26:16;;;;;;;24.30;17.17;;;;;;;15.24;82.30;96457.25;5115797;28;20027;-64
2022/05/25 02:28:48;;;;;;;23.33;17.67;;;;;;;15.22;82.27;96479.31;5116155;28;20089;-62
2022/05/25 02:31:19;;;;;;;25.70;19.77;;;;;;;15.21;82.70;96480.25;5115884;28;20538;-63
2022/05/25 02:33:49;;;;;;;22.40;17.80;;;;;;;15.21;82.79;96467.09;5116164;28;20103;-64
2022/05/25 02:36:17;;;;;;;23.03;19.60;;;;;;;15.23;82.71;96470.50;5114871;28;20405;-64
2022/05/25 02:38:43;;;;;;;24.65;19.73;;;;;;;15.26;82.50;96472.97;5115917;27;20027;-61
2022/05/25 02:41:13;;;;;;;27.17;19.08;;;;;;;15.25;82.56;96473.88;5115821;28;20499;-61
2022/05/25 02:43:39;;;;;;;24.25;19.17;;;;;;;15.27;82.53;96475.47;5116049;28;20374;-61
2022/05/25 02:46:06;;;;;;;23.67;19.15;;;;;;;15.30;82.67;96487.66;5115984;28;20427;-63
2022/05/25 02:48:33;;;;;;;23.27;17.75;;;;;;;15.24;82.31;96478.31;5116024;28;20047;-60
2022/05/25 02:50:59;;;;;;;27.05;19.15;;;;;;;15.24;82.46;96490.63;5115678;28;20031;-61
2022/05/25 02:53:25;;;;;;;23.33;19.67;;;;;;;15.18;82.92;96483.94;5115743;28;20031;-66
2022/05/25 02:55:50;;;;;;;27.02;19.50;;;;;;;15.21;82.88;96478.50;5115644;28;20022;-62
2022/05/25 02:58:16;;;;;;;22.35;18.10;;;;;;;15.25;82.83;96477.38;5115611;28;20028;-62
2022/05/25 03:00:43;;;;;;;22.05;18.02;;;;;;;15.27;82.78;96477.28;5115597;28;20027;-64
2022/05/25 03:03:10;;;;;;;21.92;17.25;;;;;;;15.31;82.49;96476.16;5115447;28;20017;-63
2022/05/25 03:05:36;;;;;;;22.15;19.63;;;;;;;15.30;82.68;96479.75;5115481;28;20019;-63
2022/05/25 03:08:04;;;;;;;25.75;19.05;;;;;;;15.32;82.83;96487.56;5115521;27;20015;-61
2022/05/25 03:10:30;;;;;;;22.90;18.95;;;;;;;15.32;82.63;96506.84;5115386;28;20484;-62
2022/05/25 03:12:55;;;;;;;21.13;18.23;;;;;;;15.34;82.97;96501.47;5115314;28;20016;-64
2022/05/25 03:15:21;;;;;;;20.20;16.52;;;;;;;15.41;82.72;96505.44;5115220;27;20051;-62
2022/05/25 03:17:47;;;;;;;19.48;14.80;;;;;;;15.47;81.92;96505.09;5115305;28;20015;-61
2022/05/25 03:20:14;;;;;;;16.55;14.85;;;;;;;15.49;81.83;96511.13;5115333;28;20416;-63
2022/05/25 03:22:44;;;;;;;15.63;14.05;;;;;;;15.54;81.95;96508.22;5115120;27;20105;-61
2022/05/25 03:25:11;;;;;;;17.40;15.20;;;;;;;15.51;82.11;96511.88;5115155;27;20479;-63
2022/05/25 03:27:37;;;;;;;17.02;14.77;;;;;;;15.54;82.57;96516.97;5115064;28;20027;-64
2022/05/25 03:30:04;;;;;;;19.38;14.02;;;;;;;15.51;82.38;96517.16;5115101;28;20027;-61
2022/05/25 03:32:30;;;;;;;16.15;14.45;;;;;;;15.53;81.84;96530.25;5114761;28;20408;-65
2022/05/25 03:34:57;;;;;;;15.88;14.27;;;;;;;15.53;81.93;96523.19;5114988;28;20030;-65
2022/05/25 03:37:23;;;;;;;17.92;14.15;;;;;;;15.60;81.53;96533.38;5114891;28;20039;-61
2022/05/25 03:39:49;;;;;;;16.65;14.85;;;;;;;15.58;81.63;96536.09;5114789;28;20024;-62
2022/05/25 03:42:17;;;;;;;19.17;14.02;;;;;;;15.62;81.55;96540.25;5114703;28;20028;-62
2022/05/25 03:44:42;;;;;;;21.38;15.23;;;;;;;15.62;81.82;96534.16;5114873;28;20035;-62
2022/05/25 03:47:08;;;;;;;17.73;14.45;;;;;;;15.64;81.80;96543.66;5114410;28;20028;-63
2022/05/25 03:49:34;;;;;;;15.63;13.77;;;;;;;15.70;81.57;96542.44;5114647;28;20020;-61
2022/05/25 03:51:59;;;;;;;13.93;12.35;;;;;;;15.71;81.42;96541.50;5114581;28;20023;-62
2022/05/25 03:54:25;;;;;;;16.13;12.30;;;;;;;15.76;81.02;96549.16;5114548;28;20098;-63
2022/05/25 03:56:52;;;;;;;14.05;12.25;;;;;;;15.79;81.30;96551.59;5114532;28;20419;-61
2022/05/25 03:59:18;;;;;;;12.98;11.77;;;;;;;15.79;81.22;96543.69;5114417;28;20031;-64
2022/05/25 04:01:44;;;;;;;13.00;11.65;;;;;;;15.83;81.42;96555.75;5114433;28;20064;-63
2022/05/25 04:04:10;;;;;;;14.65;12.27;;;;;;;15.88;81.04;96550.22;5114420;28;20462;-63
2022/05/25 04:06:36;;;;;;;12.63;11.32;;;;;;;15.88;80.85;96548.44;5114371;28;20114;-62
2022/05/25 04:09:02;;;;;;;12.70;11.25;;;;;;;15.87;80.77;96557.25;5114216;28;20023;-61
2022/05/25 04:11:28;;;;;;;11.98;10.77;;;;;;;15.91;80.88;96555.31;5114097;28;20020;-63
2022/05/25 04:13:54;;;;;;;14.50;10.98;;;;;;;15.97;80.52;96560.25;5114050;28;20465;-64
2022/05/25 04:16:20;;;;;;;12.95;11.25;;;;;;;16.01;80.28;96559.13;5114083;28;20024;-66
2022/05/25 04:18:46;;;;;;;12.95;9.85;;;;;;;16.03;80.39;96553.75;5114158;28;20020;-63
2022/05/25 04:21:11;;;;;;;13.75;10.63;;;;;;;16.02;80.09;96542.34;5114244;28;20386;-61
2022/05/25 04:23:37;;;;;;;12.48;10.90;;;;;;;16.01;80.50;96550.34;5113946;28;20031;-61
2022/05/25 04:26:03;;;;;;;13.45;10.38;;;;;;;16.04;81.24;96558.06;5113904;28;20432;-64
2022/05/25 04:28:29;;;;;;;14.95;10.90;;;;;;;16.08;81.34;96558.75;5113954;28;20450;-64
2022/05/25 04:30:55;;;;;;;13.90;10.30;;;;;;;16.10;80.81;96559.53;5113373;28;20020;-63
2022/05/25 04:33:21;;;;;;;14.73;10.55;;;;;;;16.17;80.38;96566.13;5113854;28;20111;-64
2022/05/25 04:35:46;;;;;;;14.85;9.30;;;;;;;16.19;79.43;96561.59;5113883;28;20064;-64
2022/05/25 04:38:15;;;;;;;12.40;11.15;;;;;;;16.22;79.34;96565.84;5113781;28;20056;-64
2022/05/25 04:40:44;;;;;;;17.58;11.52;;;;;;;16.26;79.50;96572.63;5113659;28;20484;-64
2022/05/25 04:43:17;;;;;;;15.07;12.68;;;;;;;16.30;79.60;96571.50;5113690;28;20530;-64
2022/05/25 04:45:45;;;;;;;19.80;11.98;;;;;;;16.37;79.63;96575.47;5113750;28;20495;-63
2022/05/25 04:48:13;;;;;;;14.60;12.98;;;;;;;16.44;79.62;96572.44;5113667;28;20027;-61
2022/05/25 04:50:41;;;;;;;16.70;13.65;;;;;;;16.48;79.29;96573.94;5113505;28;20385;-64
2022/05/25 04:53:11;;;;;;;17.33;12.75;;;;;;;16.55;78.94;96583.19;5113620;28;20034;-60
2022/05/25 04:58:23;;;;;;;15.48;13.70;;;;;;;16.61;79.44;96577.53;5113175;28;20088;-65
2022/05/25 05:00:50;;;;;;;20.02;15.82;;;;;;;16.70;79.45;96575.28;5113492;28;20031;-62
2022/05/25 05:03:17;;;;;;;17.65;14.95;;;;;;;16.77;78.29;96582.69;5113455;28;20019;-61
2022/05/25 05:05:44;;;;;;;20.20;14.82;;;;;;;16.76;78.22;96588.06;5113469;28;20020;-62
2022/05/25 05:08:12;;;;;;;18.88;9.65;;;;;;;16.68;77.36;96588.56;5113459;28;20023;-63
2022/05/25 05:10:38;;;;;;;16.80;7.93;;;;;;;16.57;76.91;96585.72;5113406;28;20102;-61
2022/05/25 05:13:04;;;;;;;10.32;7.93;;;;;;;16.59;77.31;96591.78;5113378;28;20019;-63
2022/05/25 05:15:35;;;;;;;13.73;8.73;;;;;;;16.63;76.81;96585.34;5113334;28;20026;-64
2022/05/25 05:18:02;;;;;;;12.38;9.35;;;;;;;16.71;77.21;96587.53;5113307;28;20058;-62
2022/05/25 05:20:28;;;;;;;16.27;9.73;;;;;;;16.76;76.44;96582.78;5113488;28;20557;-61
2022/05/25 05:22:54;;;;;;;12.40;10.73;;;;;;;16.85;75.68;96589.28;5113249;28;20069;-64
2022/05/25 05:25:21;;;;;;;18.15;11.35;;;;;;;16.85;75.58;96586.66;5113409;28;20411;-63
2022/05/25 05:27:47;;;;;;;14.32;12.40;;;;;;;16.90;76.19;96597.78;5113214;28;20023;-65
2022/05/25 05:30:17;;;;;;;19.45;13.05;;;;;;;16.91;76.23;96594.19;5113325;28;20585;-62
2022/05/25 05:32:43;;;;;;;14.48;12.10;;;;;;;16.93;75.88;96595.81;5113113;28;20076;-65
2022/05/25 05:35:10;;;;;;;17.20;12.20;;;;;;;16.84;76.95;96596.38;5113230;28;20038;-65
2022/05/25 05:37:40;;;;;;;14.82;9.55;;;;;;;16.85;76.01;96598.06;5113172;28;20464;-61
2022/05/25 05:40:08;;;;;;;9.27;6.65;;;;;;;16.87;75.82;96597.97;5113395;28;20106;-61
2022/05/25 05:42:40;;;;;;;9.18;6.15;;;;;;;16.94;75.11;96612.50;5113307;28;20098;-65
2022/05/25 05:45:12;;;;;;;6.78;4.72;;;;;;;17.00;73.90;96609.47;5113259;28;20031;-61
2022/05/25 05:47:47;;;;;;;11.15;5.93;;;;;;;16.96;74.02;96613.25;5113115;28;20024;-61
2022/05/25 05:50:19;;;;;;;8.20;5.07;;;;;;;16.95;73.85;96608.06;5113289;28;20034;-61
2022/05/25 05:52:45;;;;;;;6.85;5.25;;;;;;;16.93;73.53;96608.16;5113025;28;20041;-61
2022/05/25 05:55:11;;;;;;;13.02;4.72;;;;;;;16.98;73.63;96621.09;5111708;28;20016;-62
2022/05/25 05:57:38;;;;;;;12.43;4.70;;;;;;;16.99;73.74;96614.84;5112999;28;20055;-62
2022/05/25 06:00:07;;;;;;;7.07;4.18;;;;;;;16.99;73.96;96620.13;5111731;28;20122;-62
2022/05/25 06:02:33;;;;;;;7.10;4.30;;;;;;;16.97;73.24;96617.59;5113004;28;20027;-64
2022/05/25 06:04:59;;;;;;;6.93;4.68;;;;;;;16.95;73.16;96624.78;5112879;28;20130;-61
2022/05/25 06:07:24;;;;;;;6.43;4.28;;;;;;;17.02;73.33;96627.88;5113045;28;20065;-64
2022/05/25 06:09:50;;;;;;;5.25;4.07;;;;;;;17.11;73.59;96629.97;5114515;28;20051;-64
2022/05/25 06:12:16;;;;;;;16.83;5.03;;;;;;;17.17;72.80;96620.81;5116538;28;20038;-63
2022/05/25 06:14:43;;;;;;;7.25;4.75;;;;;;;17.27;72.66;96628.97;5116711;28;20479;-61
2022/05/25 06:19:54;;;;;;;8.75;5.38;;;;;;;17.36;71.68;96625.75;5116857;28;20065;-61
2022/05/25 06:22:20;;;;;;;10.75;4.57;;;;;;;17.40;72.14;96624.59;5116392;28;20027;-62
2022/05/25 06:24:51;;;;;;;8.20;4.72;;;;;;;17.49;72.02;96631.09;5116228;28;20024;-64
2022/05/25 06:27:19;;;;;;;8.38;4.68;;;;;;;17.53;71.93;96639.69;5116202;28;20019;-64
2022/05/25 06:29:47;;;;;;;9.73;5.15;;;;;;;17.45;71.71;96629.59;5116199;28;20023;-64
2022/05/25 06:32:14;;;;;;;9.65;4.57;;;;;;;17.52;71.75;96630.91;5115979;27;20047;-62
2022/05/25 06:34:41;;;;;;;10.25;4.60;;;;;;;17.57;71.53;96627.94;5116061;28;20034;-61
2022/05/25 06:37:13;;;;;;;9.13;4.78;;;;;;;17.58;71.98;96628.81;5116009;28;20460;-64
2022/05/25 06:39:39;;;;;;;11.05;4.78;;;;;;;17.62;71.54;96633.81;5115931;28;20401;-63
2022/05/25 06:42:06;;;;;;;15.25;6.07;;;;;;;17.67;71.68;96634.34;5115947;28;20020;-64
2022/05/25 06:44:33;;;;;;;10.40;5.57;;;;;;;17.75;71.46;96639.13;5115992;28;20027;-63
2022/05/25 06:46:58;;;;;;;8.48;5.13;;;;;;;17.85;71.09;96634.06;5115863;28;20428;-62
2022/05/25 06:49:24;;;;;;;8.80;5.68;;;;;;;17.93;71.31;96644.16;5115954;28;20061;-62
2022/05/25 06:51:50;;;;;;;5.43;4.82;;;;;;;17.95;70.69;96634.31;5115865;28;20792;-64
2022/05/25 06:54:18;;;;;;;7.63;4.93;;;;;;;18.00;70.33;96642.78;5115868;28;20055;-62
2022/05/25 06:56:44;;;;;;;11.50;5.50;;;;;;;18.02;70.22;96646.19;5115670;28;20029;-63
2022/05/25 06:59:10;;;;;;;14.00;5.50;;;;;;;18.00;70.17;96648.09;5115692;28;20373;-64
2022/05/25 07:01:39;;;;;;;9.23;6.03;;;;;;;18.05;69.90;96647.78;5115644;28;20353;-65
2022/05/25 07:04:07;;;;;;;9.10;5.60;;;;;;;18.04;69.85;96643.44;5115666;28;20076;-62
2022/05/25 07:06:36;;;;;;;10.40;4.88;;;;;;;18.12;69.90;96645.63;5115499;28;20031;-63
2022/05/25 07:09:02;;;;;;;12.10;5.30;;;;;;;18.18;68.85;96650.47;5115591;28;20495;-63
2022/05/25 07:11:28;;;;;;;9.82;4.95;;;;;;;18.30;69.47;96659.38;5115598;28;20023;-61
2022/05/25 07:13:54;;;;;;;10.80;5.68;;;;;;;18.36;69.23;96663.44;5115543;28;20020;-64
2022/05/25 07:16:21;;;;;;;8.82;4.95;;;;;;;18.40;68.77;96662.28;5115378;28;20036;-62
2022/05/25 07:18:48;;;;;;;9.73;5.32;;;;;;;18.50;69.38;96659.84;5115220;28;20020;-63
2022/05/25 07:21:17;;;;;;;10.25;5.63;;;;;;;18.64;68.96;96662.41;5114461;28;20047;-64
2022/05/25 07:23:45;;;;;;;7.95;5.32;;;;;;;18.75;69.01;96658.16;5115097;28;20106;-63
2022/05/25 07:26:12;;;;;;;9.70;5.63;;;;;;;18.85;68.06;96672.47;5115177;28;20035;-64
2022/05/25 07:28:38;;;;;;;7.18;5.20;;;;;;;18.89;68.30;96670.44;5115173;27;20027;-62
2022/05/25 07:31:17;;;;;;;8.60;5.00;;;;;;;18.91;67.41;96674.66;5114839;28;20019;-61
2022/05/25 07:33:46;;;;;;;7.55;4.85;;;;;;;18.82;67.98;96672.69;5114991;27;20020;-64
2022/05/25 07:36:12;;;;;;;6.90;4.80;;;;;;;18.97;67.64;96680.50;5114992;28;20019;-61
2022/05/25 07:38:44;;;;;;;9.70;5.38;;;;;;;19.07;67.50;96678.91;5114853;28;20028;-64
2022/05/25 07:41:10;;;;;;;9.18;5.55;;;;;;;19.16;66.53;96683.59;5114806;28;20068;-61
2022/05/25 07:43:39;;;;;;;7.68;5.60;;;;;;;19.21;66.82;96691.22;5114649;28;20031;-64
2022/05/25 07:46:05;;;;;;;10.00;6.13;;;;;;;19.27;66.56;96687.28;5114817;28;20031;-61
2022/05/25 07:48:31;;;;;;;8.07;6.18;;;;;;;19.35;66.32;96684.91;5114722;28;20465;-61
2022/05/25 07:50:57;;;;;;;12.73;6.65;;;;;;;19.40;65.85;96684.59;5114640;28;20023;-61
2022/05/25 07:56:07;;;;;;;12.00;8.50;;;;;;;19.69;65.65;96686.94;5114904;28;20039;-63
2022/05/25 07:58:33;;;;;;;12.90;8.65;;;;;;;19.79;65.91;96689.75;5114587;28;20020;-61
2022/05/25 08:01:06;;;;;;;13.63;8.30;;;;;;;19.94;65.63;96688.66;5114656;28;20019;-62
2022/05/25 08:06:16;;;;;;;18.48;14.25;;;;;;;20.26;64.26;96689.88;5114844;28;20042;-61
2022/05/25 08:08:44;;;;;;;18.00;13.50;;;;;;;20.39;63.41;96680.97;5114309;28;20028;-63
2022/05/25 08:11:13;;;;;;;19.58;13.23;;;;;;;20.56;64.93;96693.81;5114264;28;20027;-64
2022/05/25 08:13:44;;;;;;;22.80;19.45;;;;;;;20.64;64.19;96690.59;5112869;28;20072;-61
2022/05/25 08:16:10;;;;;;;24.85;17.23;;;;;;;20.82;64.62;96685.66;5114110;28;20023;-62
2022/05/25 08:18:36;;;;;;;17.63;12.68;;;;;;;20.90;64.06;96686.91;5114162;28;20038;-61
2022/05/25 08:21:03;;;;;;;15.25;12.13;;;;;;;20.77;64.09;96695.78;5114034;28;20015;-61
2022/05/25 08:23:29;;;;;;;19.27;14.05;;;;;;;20.90;62.59;96705.50;5113999;28;20026;-61
2022/05/25 08:25:55;;;;;;;23.83;15.05;;;;;;;20.92;62.94;96701.75;5114100;28;20020;-64
2022/05/25 08:28:21;;;;;;;20.90;15.20;;;;;;;21.03;63.43;96705.38;5114048;28;20048;-64
2022/05/25 08:30:46;;;;;;;24.30;16.95;;;;;;;21.18;62.56;96719.31;5113940;28;20031;-63
2022/05/25 08:33:16;;;;;;;20.15;16.20;;;;;;;21.31;61.27;96730.66;5113614;28;20135;-62
2022/05/25 08:35:43;;;;;;;21.33;17.60;;;;;;;21.38;61.00;96723.06;5114072;28;20373;-63
2022/05/25 08:38:08;;;;;;;21.48;19.17;;;;;;;21.34;60.73;96717.13;5113964;28;20080;-64
2022/05/25 08:40:34;;;;;;;23.73;18.23;;;;;;;21.49;60.81;96716.88;5113797;28;20473;-64
2022/05/25 08:43:04;;;;;;;23.60;19.02;;;;;;;21.60;61.17;96710.69;5113557;28;20015;-62
2022/05/25 08:45:46;;;;;;;21.52;17.20;;;;;;;21.61;61.12;96724.84;5113768;28;20027;-64
2022/05/25 08:48:15;;;;;;;25.00;18.20;;;;;;;21.63;60.61;96713.09;5113786;28;20106;-62
2022/05/25 08:50:53;;;;;;;19.42;15.52;;;;;;;21.79;60.12;96712.72;5113726;28;20043;-64
2022/05/25 08:53:23;;;;;;;18.25;14.95;;;;;;;22.03;60.10;96709.03;5113624;28;20027;-62
2022/05/25 08:56:07;;;;;;;18.75;15.55;;;;;;;22.21;56.90;96722.66;5113576;28;20031;-62
2022/05/25 08:58:47;;;;;;;22.50;16.75;;;;;;;22.42;56.81;96731.63;5113574;28;20110;-62
2022/05/25 09:01:41;;;;;;;23.65;16.02;;;;;;;22.44;58.05;96729.69;5113534;28;20457;-63
2022/05/25 09:04:20;;;;;;;24.85;16.17;;;;;;;22.31;59.22;96721.91;5093828;28;20477;-62
2022/05/25 09:06:50;;;;;;;22.10;16.10;;;;;;;22.38;58.06;96720.41;5113632;28;20043;-61
2022/05/25 09:09:22;;;;;;;22.15;15.15;;;;;;;22.46;56.29;96725.09;5113659;28;20034;-62
2022/05/25 09:12:27;;;;;;;20.88;15.70;;;;;;;22.33;57.18;96723.44;5113498;28;20111;-62
2022/05/25 09:15:05;;;;;;;23.60;17.08;;;;;;;22.35;58.19;96712.66;5113528;28;20050;-63
2022/05/25 09:17:35;;;;;;;24.38;17.45;;;;;;;22.38;59.83;96724.88;5113481;28;20032;-61
2022/05/25 09:20:01;;;;;;;21.25;16.05;;;;;;;22.69;58.16;96717.84;5113258;28;20024;-60
2022/05/25 09:22:31;;;;;;;22.05;14.63;;;;;;;22.87;54.62;96719.09;5113421;28;20077;-64
2022/05/25 09:25:00;;;;;;;22.65;15.35;;;;;;;23.04;56.27;96717.63;5113369;28;20499;-61
2022/05/25 09:27:36;;;;;;;21.35;15.43;;;;;;;23.46;54.36;96725.56;5113401;28;20027;-61
2022/05/25 09:30:04;;;;;;;22.38;15.13;;;;;;;23.64;55.18;96716.91;5113327;28;20380;-63
2022/05/25 09:32:29;;;;;;;21.98;15.95;;;;;;;23.53;54.48;96707.16;5112937;28;20122;-64
2022/05/25 09:35:27;;;;;;;23.58;16.35;;;;;;;23.78;56.39;96712.16;5113289;28;20110;-62
2022/05/25 09:38:02;;;;;;;21.40;15.90;;;;;;;23.91;56.02;96712.75;5113051;28;20119;-64
2022/05/25 09:40:41;;;;;;;21.38;15.98;;;;;;;24.29;54.55;96714.78;5113294;28;20035;-62
2022/05/25 09:43:14;;;;;;;18.45;14.25;;;;;;;24.31;51.41;96720.81;5113101;28;20508;-62
2022/05/25 09:45:44;;;;;;;21.80;15.18;;;;;;;24.30;51.79;96728.00;5116281;28;20027;-61
2022/05/25 09:48:18;;;;;;;22.88;15.48;;;;;;;24.10;52.11;96721.75;5117169;28;20027;-61
2022/05/25 09:50:51;;;;;;;20.83;15.10;;;;;;;24.10;53.20;96721.75;5117157;28;20128;-62
2022/05/25 09:53:20;;;;;;;20.08;15.85;;;;;;;24.13;54.90;96717.94;5117199;28;20020;-63
2022/05/25 09:56:03;;;;;;;20.58;15.45;;;;;;;24.39;54.91;96723.63;5116901;28;20470;-62
2022/05/25 09:58:43;;;;;;;22.13;15.43;;;;;;;24.66;53.90;96713.19;5117005;28;20377;-63
2022/05/25 10:01:38;;;;;;;18.27;14.85;;;;;;;24.73;50.47;96709.81;5116964;28;20034;-62
2022/05/25 10:04:04;;;;;;;19.98;15.20;;;;;;;24.61;51.61;96695.75;5116652;28;20158;-62
2022/05/25 10:06:51;;;;;;;21.33;14.55;;;;;;;24.82;51.14;96705.41;5116783;28;20039;-63
2022/05/25 10:09:24;;;;;;;19.98;15.32;;;;;;;24.93;51.36;96696.41;5116684;28;20052;-62
2022/05/25 10:12:16;;;;;;;22.75;15.68;;;;;;;25.10;52.53;96700.16;5116561;28;20123;-60
2022/05/25 10:14:56;;;;;;;19.90;15.38;;;;;;;25.02;52.78;96699.19;5116651;28;20024;-61
2022/05/25 10:17:46;;;;;;;20.60;14.80;;;;;;;25.11;54.16;96701.00;5116595;28;20016;-62
2022/05/25 10:20:47;;;;;;;18.40;14.30;;;;;;;25.48;52.75;96691.25;5116475;28;20096;-61
2022/05/25 10:23:22;;;;;;;18.27;13.27;;;;;;;25.58;50.43;96694.72;5093900;28;20458;-62
2022/05/25 10:26:15;;;;;;;21.67;15.18;;;;;;;25.71;49.99;96691.72;5113321;28;20036;-63
2022/05/25 10:28:54;;;;;;;22.38;15.63;;;;;;;25.93;49.88;96694.97;5110984;28;20067;-62
2022/05/25 10:37:30;;;;;;;17.00;13.75;;;;;;;25.96;48.80;96686.63;5116237;27;20034;-61
2022/05/25 10:39:56;;;;;;;18.45;13.77;;;;;;;26.10;48.78;96695.13;5108092;28;20144;-61
2022/05/25 10:42:45;;;;;;;20.80;14.88;;;;;;;26.20;49.86;96692.38;5116122;28;20116;-62
2022/05/25 10:45:18;;;;;;;25.20;15.07;;;;;;;26.25;49.20;96693.56;5116036;28;20399;-61
2022/05/25 10:48:07;;;;;;;21.10;15.57;;;;;;;26.43;50.16;96705.34;5116058;28;20085;-61
2022/05/25 10:50:46;;;;;;;18.98;13.77;;;;;;;26.53;47.48;96710.59;5115872;28;20031;-62
2022/05/25 10:53:43;;;;;;;29.67;15.43;;;;;;;26.06;48.46;96694.56;5115941;28;20390;-62
2022/05/25 10:56:31;;;;;;;21.58;16.23;;;;;;;25.42;49.98;96697.19;5114735;28;20115;-63
2022/05/25 10:59:18;;;;;;;18.55;15.00;;;;;;;25.14;50.51;96705.22;5115715;28;20076;-64
2022/05/25 11:02:09;;;;;;;20.10;16.00;;;;;;;25.03;52.36;96699.06;5115808;28;20540;-62
2022/05/25 11:04:59;;;;;;;21.55;15.02;;;;;;;25.13;50.81;96703.53;5115737;28;20035;-62
2022/05/25 11:07:43;;;;;;;19.80;16.33;;;;;;;25.16;53.98;96692.53;5115605;28;20469;-63
2022/05/25 11:10:18;;;;;;;20.38;13.90;;;;;;;25.27;52.40;96694.16;5115722;28;20430;-62
2022/05/25 11:12:44;;;;;;;20.02;14.13;;;;;;;25.19;49.37;96697.59;5115422;28;20114;-60
2022/05/25 11:15:22;;;;;;;21.60;15.85;;;;;;;25.32;51.63;96708.81;5115419;28;20058;-62
2022/05/25 11:18:19;;;;;;;24.63;15.93;;;;;;;25.39;51.94;96687.63;5115430;28;20012;-63
2022/05/25 11:21:05;;;;;;;20.13;15.65;;;;;;;25.19;51.46;96687.72;5115399;28;20108;-60
2022/05/25 11:23:52;;;;;;;20.38;14.48;;;;;;;25.30;51.21;96691.19;5115246;28;20031;-62
2022/05/25 11:27:00;;;;;;;25.63;15.70;;;;;;;25.10;50.32;96667.19;5115124;28;20067;-62
2022/05/25 11:29:49;;;;;;;21.52;15.18;;;;;;;25.09;51.23;96674.41;5113665;28;20047;-63
2022/05/25 11:32:40;;;;;;;21.00;14.10;;;;;;;25.12;51.61;96686.63;5114845;28;20035;-61
2022/05/25 11:35:11;;;;;;;16.45;14.65;;;;;;;25.05;51.09;96678.34;5114948;28;20027;-63
2022/05/25 11:38:18;;;;;;;25.23;14.95;;;;;;;25.02;52.78;96673.28;5114992;28;20044;-63
2022/05/25 11:40:59;;;;;;;15.85;13.90;;;;;;;25.03;51.03;96663.41;5114014;28;20106;-63
2022/05/25 11:43:45;;;;;;;16.73;14.90;;;;;;;25.13;51.58;96664.22;5113705;28;20031;-60
2022/05/25 11:46:20;;;;;;;23.52;15.18;;;;;;;25.06;53.10;96669.34;5114805;28;20095;-63
2022/05/25 11:49:04;;;;;;;21.42;15.63;;;;;;;24.98;54.73;96664.72;5114685;28;20030;-63
2022/05/25 11:51:46;;;;;;;22.98;16.10;;;;;;;24.55;54.59;96660.72;5114820;28;20484;-63
2022/05/25 11:54:38;;;;;;;20.85;14.57;;;;;;;24.69;55.15;96646.91;5114686;28;20023;-62
2022/05/25 11:57:33;;;;;;;17.83;15.13;;;;;;;24.88;54.59;96647.00;5114677;27;20032;-61
2022/05/25 12:00:07;;;;;;;22.20;15.52;;;;;;;24.97;53.34;96648.81;5114584;28;20031;-62
2022/05/25 12:03:03;;;;;;;22.63;15.85;;;;;;;24.78;53.85;96645.19;5114800;28;20039;-61
2022/05/25 12:06:10;;;;;;;20.38;15.80;;;;;;;24.65;53.55;96642.00;5114552;28;20110;-63